EmailTwitter


Observations de surface / Québec / EGDM

Régions: Québec | Canada | États-Unis | Europe | France | UK | Elsewhere
Station
Affichage
Infos & localisation pour EGDM | Aide pour décoder les METARs

Observations prises le 2017-05-26 à 00H50 UTC à BOSCOMBE DOWN, UK (EGDM)

Température: 14.0 Celsius

Point de rosée: 10.0 Celsius

Humidité relative: 77%

Vents: Est-nord-est à 17 km/h ou 9 noeuds.

Pression au niveau moyen de la mer: 101.90 kilopascals.

Visibilité horizontale: 6.21 milles terrestres ou 9.94 kilomètres.

Observation METAR:

EGDM 260050Z AUTO 07009KT 9999 NCD 14/10 Q1019=